sensor_id;sensor_type;location;lat;lon;timestamp;P1;durP1;ratioP1;P2;durP2;ratioP2
14306;SDS011;7237;49.500;11.400;2023-07-13T00:01:04;3.58;;;3.10;;
14306;SDS011;7237;49.500;11.400;2023-07-13T00:03:32;4.43;;;2.60;;
14306;SDS011;7237;49.500;11.400;2023-07-13T00:06:00;2.92;;;2.40;;
14306;SDS011;7237;49.500;11.400;2023-07-13T00:08:30;2.78;;;2.50;;
14306;SDS011;7237;49.500;11.400;2023-07-13T00:10:58;3.30;;;2.78;;
14306;SDS011;7237;49.500;11.400;2023-07-13T00:13:25;2.45;;;2.17;;
14306;SDS011;7237;49.500;11.400;2023-07-13T00:15:53;2.92;;;2.50;;
14306;SDS011;7237;49.500;11.400;2023-07-13T00:18:21;5.85;;;2.50;;
14306;SDS011;7237;49.500;11.400;2023-07-13T00:20:48;3.15;;;2.33;;
14306;SDS011;7237;49.500;11.400;2023-07-13T00:23:15;6.53;;;2.30;;
14306;SDS011;7237;49.500;11.400;2023-07-13T00:25:45;2.90;;;2.60;;
14306;SDS011;7237;49.500;11.400;2023-07-13T00:28:12;2.90;;;2.38;;
14306;SDS011;7237;49.500;11.400;2023-07-13T00:30:39;3.38;;;2.60;;
14306;SDS011;7237;49.500;11.400;2023-07-13T00:33:06;5.40;;;2.75;;
14306;SDS011;7237;49.500;11.400;2023-07-13T00:35:33;3.00;;;2.63;;
14306;SDS011;7237;49.500;11.400;2023-07-13T00:38:01;4.15;;;2.85;;
14306;SDS011;7237;49.500;11.400;2023-07-13T00:40:28;3.97;;;2.85;;
14306;SDS011;7237;49.500;11.400;2023-07-13T00:42:57;3.60;;;2.22;;
14306;SDS011;7237;49.500;11.400;2023-07-13T00:48:10;5.13;;;2.83;;
14306;SDS011;7237;49.500;11.400;2023-07-13T00:50:38;3.00;;;2.70;;
14306;SDS011;7237;49.500;11.400;2023-07-13T00:53:05;3.40;;;2.85;;
14306;SDS011;7237;49.500;11.400;2023-07-13T00:55:33;4.05;;;3.10;;
14306;SDS011;7237;49.500;11.400;2023-07-13T00:58:01;2.97;;;2.67;;
14306;SDS011;7237;49.500;11.400;2023-07-13T01:00:29;3.50;;;2.70;;
14306;SDS011;7237;49.500;11.400;2023-07-13T01:02:57;2.63;;;2.42;;
14306;SDS011;7237;49.500;11.400;2023-07-13T01:05:24;3.20;;;2.33;;
14306;SDS011;7237;49.500;11.400;2023-07-13T01:07:51;2.47;;;1.92;;
14306;SDS011;7237;49.500;11.400;2023-07-13T01:10:21;2.42;;;1.90;;
14306;SDS011;7237;49.500;11.400;2023-07-13T01:12:48;5.05;;;2.53;;
14306;SDS011;7237;49.500;11.400;2023-07-13T01:15:36;3.58;;;2.20;;
14306;SDS011;7237;49.500;11.400;2023-07-13T01:18:03;2.50;;;2.28;;
14306;SDS011;7237;49.500;11.400;2023-07-13T01:20:31;3.33;;;1.98;;
14306;SDS011;7237;49.500;11.400;2023-07-13T01:23:02;3.45;;;2.40;;
14306;SDS011;7237;49.500;11.400;2023-07-13T01:25:30;4.20;;;2.35;;
14306;SDS011;7237;49.500;11.400;2023-07-13T01:27:57;6.40;;;3.00;;
14306;SDS011;7237;49.500;11.400;2023-07-13T01:30:25;4.90;;;3.08;;
14306;SDS011;7237;49.500;11.400;2023-07-13T01:32:52;4.03;;;2.40;;
14306;SDS011;7237;49.500;11.400;2023-07-13T01:35:19;3.05;;;2.15;;
14306;SDS011;7237;49.500;11.400;2023-07-13T01:37:46;3.20;;;2.33;;
14306;SDS011;7237;49.500;11.400;2023-07-13T01:40:14;4.00;;;2.28;;
14306;SDS011;7237;49.500;11.400;2023-07-13T01:42:41;3.30;;;1.98;;
14306;SDS011;7237;49.500;11.400;2023-07-13T01:45:09;4.18;;;2.20;;
14306;SDS011;7237;49.500;11.400;2023-07-13T01:47:36;5.05;;;1.90;;
14306;SDS011;7237;49.500;11.400;2023-07-13T01:50:03;3.90;;;2.30;;
14306;SDS011;7237;49.500;11.400;2023-07-13T01:52:31;3.40;;;2.30;;
14306;SDS011;7237;49.500;11.400;2023-07-13T01:54:58;2.60;;;2.10;;
14306;SDS011;7237;49.500;11.400;2023-07-13T01:57:26;3.92;;;2.35;;
14306;SDS011;7237;49.500;11.400;2023-07-13T01:59:53;5.00;;;2.22;;
14306;SDS011;7237;49.500;11.400;2023-07-13T02:02:20;3.58;;;2.28;;
14306;SDS011;7237;49.500;11.400;2023-07-13T02:04:47;4.50;;;2.45;;
14306;SDS011;7237;49.500;11.400;2023-07-13T02:07:14;2.55;;;1.92;;
14306;SDS011;7237;49.500;11.400;2023-07-13T02:09:41;3.30;;;2.28;;
14306;SDS011;7237;49.500;11.400;2023-07-13T02:12:08;3.53;;;2.10;;
14306;SDS011;7237;49.500;11.400;2023-07-13T02:14:37;3.38;;;2.50;;
14306;SDS011;7237;49.500;11.400;2023-07-13T02:17:04;3.15;;;2.35;;
14306;SDS011;7237;49.500;11.400;2023-07-13T02:19:31;3.42;;;2.35;;
14306;SDS011;7237;49.500;11.400;2023-07-13T02:21:58;2.58;;;2.28;;
14306;SDS011;7237;49.500;11.400;2023-07-13T02:24:25;2.38;;;2.10;;
14306;SDS011;7237;49.500;11.400;2023-07-13T02:26:52;2.20;;;2.00;;
14306;SDS011;7237;49.500;11.400;2023-07-13T02:29:19;2.10;;;2.00;;
14306;SDS011;7237;49.500;11.400;2023-07-13T02:31:48;4.82;;;2.55;;
14306;SDS011;7237;49.500;11.400;2023-07-13T02:34:15;11.70;;;2.42;;
14306;SDS011;7237;49.500;11.400;2023-07-13T02:36:42;3.55;;;2.40;;
14306;SDS011;7237;49.500;11.400;2023-07-13T02:39:09;2.20;;;2.00;;
14306;SDS011;7237;49.500;11.400;2023-07-13T02:41:38;3.88;;;2.63;;
14306;SDS011;7237;49.500;11.400;2023-07-13T02:44:05;3.60;;;2.53;;
14306;SDS011;7237;49.500;11.400;2023-07-13T02:46:34;2.88;;;2.20;;
14306;SDS011;7237;49.500;11.400;2023-07-13T02:49:03;3.78;;;2.08;;
14306;SDS011;7237;49.500;11.400;2023-07-13T02:51:31;2.85;;;2.50;;
14306;SDS011;7237;49.500;11.400;2023-07-13T02:53:59;3.25;;;2.35;;
14306;SDS011;7237;49.500;11.400;2023-07-13T02:56:26;2.22;;;1.95;;
14306;SDS011;7237;49.500;11.400;2023-07-13T02:58:54;2.55;;;2.28;;
14306;SDS011;7237;49.500;11.400;2023-07-13T03:01:21;5.15;;;1.77;;
14306;SDS011;7237;49.500;11.400;2023-07-13T03:03:48;2.88;;;1.75;;
14306;SDS011;7237;49.500;11.400;2023-07-13T03:06:17;2.53;;;1.63;;
14306;SDS011;7237;49.500;11.400;2023-07-13T03:08:44;3.17;;;2.03;;
14306;SDS011;7237;49.500;11.400;2023-07-13T03:11:13;3.28;;;2.08;;
14306;SDS011;7237;49.500;11.400;2023-07-13T03:13:40;2.30;;;2.10;;
14306;SDS011;7237;49.500;11.400;2023-07-13T03:16:08;2.10;;;1.90;;
14306;SDS011;7237;49.500;11.400;2023-07-13T03:18:36;3.08;;;2.00;;
14306;SDS011;7237;49.500;11.400;2023-07-13T03:21:03;3.42;;;1.70;;
14306;SDS011;7237;49.500;11.400;2023-07-13T03:23:32;1.92;;;1.70;;
14306;SDS011;7237;49.500;11.400;2023-07-13T03:26:03;2.25;;;1.67;;
14306;SDS011;7237;49.500;11.400;2023-07-13T03:28:30;2.65;;;1.60;;
14306;SDS011;7237;49.500;11.400;2023-07-13T03:31:01;1.63;;;1.52;;
14306;SDS011;7237;49.500;11.400;2023-07-13T03:33:28;2.58;;;1.70;;
14306;SDS011;7237;49.500;11.400;2023-07-13T03:35:55;2.08;;;1.75;;
14306;SDS011;7237;49.500;11.400;2023-07-13T03:38:22;2.67;;;1.92;;
14306;SDS011;7237;49.500;11.400;2023-07-13T03:40:51;2.88;;;2.00;;
14306;SDS011;7237;49.500;11.400;2023-07-13T03:43:18;3.05;;;2.03;;
14306;SDS011;7237;49.500;11.400;2023-07-13T03:45:46;5.35;;;2.33;;
14306;SDS011;7237;49.500;11.400;2023-07-13T03:48:13;4.70;;;2.22;;
14306;SDS011;7237;49.500;11.400;2023-07-13T03:50:40;2.97;;;2.10;;
14306;SDS011;7237;49.500;11.400;2023-07-13T03:53:07;3.22;;;2.20;;
14306;SDS011;7237;49.500;11.400;2023-07-13T03:55:35;4.57;;;2.08;;
14306;SDS011;7237;49.500;11.400;2023-07-13T04:00:45;2.90;;;2.00;;
14306;SDS011;7237;49.500;11.400;2023-07-13T04:03:12;4.90;;;2.35;;
14306;SDS011;7237;49.500;11.400;2023-07-13T04:05:39;4.03;;;2.08;;
14306;SDS011;7237;49.500;11.400;2023-07-13T04:08:06;2.60;;;1.55;;
14306;SDS011;7237;49.500;11.400;2023-07-13T04:10:34;2.88;;;1.55;;
14306;SDS011;7237;49.500;11.400;2023-07-13T04:13:01;2.20;;;1.73;;
14306;SDS011;7237;49.500;11.400;2023-07-13T04:15:28;4.80;;;1.52;;
14306;SDS011;7237;49.500;11.400;2023-07-13T04:17:57;2.50;;;1.50;;
14306;SDS011;7237;49.500;11.400;2023-07-13T04:20:24;2.95;;;1.77;;
14306;SDS011;7237;49.500;11.400;2023-07-13T04:22:51;7.18;;;2.38;;
14306;SDS011;7237;49.500;11.400;2023-07-13T04:25:19;6.13;;;2.30;;
14306;SDS011;7237;49.500;11.400;2023-07-13T04:27:46;2.13;;;1.92;;
14306;SDS011;7237;49.500;11.400;2023-07-13T04:30:14;4.10;;;1.88;;
14306;SDS011;7237;49.500;11.400;2023-07-13T04:32:41;3.75;;;2.03;;
14306;SDS011;7237;49.500;11.400;2023-07-13T04:35:09;2.10;;;1.80;;
14306;SDS011;7237;49.500;11.400;2023-07-13T04:37:36;4.60;;;1.75;;
14306;SDS011;7237;49.500;11.400;2023-07-13T04:40:04;4.97;;;1.75;;
14306;SDS011;7237;49.500;11.400;2023-07-13T04:42:31;3.08;;;1.67;;
14306;SDS011;7237;49.500;11.400;2023-07-13T04:44:59;8.07;;;1.70;;
14306;SDS011;7237;49.500;11.400;2023-07-13T04:47:29;3.42;;;1.83;;
14306;SDS011;7237;49.500;11.400;2023-07-13T04:49:56;5.35;;;2.40;;
14306;SDS011;7237;49.500;11.400;2023-07-13T04:52:25;10.07;;;2.10;;
14306;SDS011;7237;49.500;11.400;2023-07-13T04:54:52;5.20;;;1.60;;
14306;SDS011;7237;49.500;11.400;2023-07-13T04:57:19;3.30;;;1.50;;
14306;SDS011;7237;49.500;11.400;2023-07-13T04:59:46;3.47;;;1.50;;
14306;SDS011;7237;49.500;11.400;2023-07-13T05:02:13;2.45;;;1.42;;
14306;SDS011;7237;49.500;11.400;2023-07-13T05:04:40;3.53;;;1.90;;
14306;SDS011;7237;49.500;11.400;2023-07-13T05:07:07;7.28;;;2.15;;
14306;SDS011;7237;49.500;11.400;2023-07-13T05:09:35;3.55;;;1.63;;
14306;SDS011;7237;49.500;11.400;2023-07-13T05:12:02;3.88;;;1.50;;
14306;SDS011;7237;49.500;11.400;2023-07-13T05:14:30;1.85;;;1.60;;
14306;SDS011;7237;49.500;11.400;2023-07-13T05:16:57;3.90;;;1.50;;
14306;SDS011;7237;49.500;11.400;2023-07-13T05:19:24;1.85;;;1.35;;
14306;SDS011;7237;49.500;11.400;2023-07-13T05:21:51;2.90;;;1.27;;
14306;SDS011;7237;49.500;11.400;2023-07-13T05:24:18;3.97;;;1.55;;
14306;SDS011;7237;49.500;11.400;2023-07-13T05:26:46;3.25;;;1.40;;
14306;SDS011;7237;49.500;11.400;2023-07-13T05:29:13;1.30;;;1.20;;
14306;SDS011;7237;49.500;11.400;2023-07-13T05:31:40;1.75;;;1.58;;
14306;SDS011;7237;49.500;11.400;2023-07-13T05:34:07;2.13;;;1.30;;
14306;SDS011;7237;49.500;11.400;2023-07-13T05:36:34;5.63;;;1.60;;
14306;SDS011;7237;49.500;11.400;2023-07-13T05:39:02;2.58;;;1.30;;
14306;SDS011;7237;49.500;11.400;2023-07-13T05:41:29;4.93;;;1.25;;
14306;SDS011;7237;49.500;11.400;2023-07-13T05:43:57;1.95;;;1.20;;
14306;SDS011;7237;49.500;11.400;2023-07-13T05:46:25;2.53;;;1.27;;
14306;SDS011;7237;49.500;11.400;2023-07-13T05:48:52;1.88;;;1.33;;
14306;SDS011;7237;49.500;11.400;2023-07-13T05:51:19;2.70;;;1.38;;
14306;SDS011;7237;49.500;11.400;2023-07-13T05:53:46;3.08;;;1.17;;
14306;SDS011;7237;49.500;11.400;2023-07-13T05:56:13;3.85;;;1.48;;
14306;SDS011;7237;49.500;11.400;2023-07-13T05:58:40;2.63;;;1.30;;
14306;SDS011;7237;49.500;11.400;2023-07-13T06:01:10;4.05;;;1.77;;
14306;SDS011;7237;49.500;11.400;2023-07-13T06:03:37;3.45;;;1.40;;
14306;SDS011;7237;49.500;11.400;2023-07-13T06:06:04;2.72;;;1.48;;
14306;SDS011;7237;49.500;11.400;2023-07-13T06:08:31;4.53;;;1.90;;
14306;SDS011;7237;49.500;11.400;2023-07-13T06:11:01;2.50;;;1.70;;
14306;SDS011;7237;49.500;11.400;2023-07-13T06:13:28;4.47;;;1.50;;
14306;SDS011;7237;49.500;11.400;2023-07-13T06:15:55;4.53;;;1.40;;
14306;SDS011;7237;49.500;11.400;2023-07-13T06:18:24;1.38;;;1.17;;
14306;SDS011;7237;49.500;11.400;2023-07-13T06:20:51;1.98;;;1.17;;
14306;SDS011;7237;49.500;11.400;2023-07-13T06:23:18;1.40;;;1.30;;
14306;SDS011;7237;49.500;11.400;2023-07-13T06:25:45;1.73;;;1.10;;
14306;SDS011;7237;49.500;11.400;2023-07-13T06:28:12;3.90;;;1.48;;
14306;SDS011;7237;49.500;11.400;2023-07-13T06:30:39;2.53;;;1.30;;
14306;SDS011;7237;49.500;11.400;2023-07-13T06:33:06;2.13;;;1.02;;
14306;SDS011;7237;49.500;11.400;2023-07-13T06:35:34;2.92;;;1.42;;
14306;SDS011;7237;49.500;11.400;2023-07-13T06:38:02;2.50;;;1.35;;
14306;SDS011;7237;49.500;11.400;2023-07-13T06:40:29;2.47;;;1.40;;
14306;SDS011;7237;49.500;11.400;2023-07-13T06:42:56;3.90;;;1.30;;
14306;SDS011;7237;49.500;11.400;2023-07-13T06:45:23;2.40;;;1.50;;
14306;SDS011;7237;49.500;11.400;2023-07-13T06:47:50;3.75;;;1.60;;
14306;SDS011;7237;49.500;11.400;2023-07-13T06:50:17;3.33;;;1.30;;
14306;SDS011;7237;49.500;11.400;2023-07-13T06:52:46;4.75;;;1.52;;
14306;SDS011;7237;49.500;11.400;2023-07-13T06:55:13;3.97;;;1.50;;
14306;SDS011;7237;49.500;11.400;2023-07-13T06:57:40;1.77;;;1.30;;
14306;SDS011;7237;49.500;11.400;2023-07-13T07:00:08;1.85;;;1.27;;
14306;SDS011;7237;49.500;11.400;2023-07-13T07:02:35;3.88;;;1.58;;
14306;SDS011;7237;49.500;11.400;2023-07-13T07:05:02;5.80;;;1.50;;
14306;SDS011;7237;49.500;11.400;2023-07-13T07:07:30;1.70;;;1.20;;
14306;SDS011;7237;49.500;11.400;2023-07-13T07:09:58;2.45;;;1.42;;
14306;SDS011;7237;49.500;11.400;2023-07-13T07:12:25;2.65;;;1.33;;
14306;SDS011;7237;49.500;11.400;2023-07-13T07:14:52;3.67;;;1.40;;
14306;SDS011;7237;49.500;11.400;2023-07-13T07:17:19;3.28;;;1.67;;
14306;SDS011;7237;49.500;11.400;2023-07-13T07:19:46;1.92;;;1.35;;
14306;SDS011;7237;49.500;11.400;2023-07-13T07:22:13;2.97;;;1.42;;
14306;SDS011;7237;49.500;11.400;2023-07-13T07:24:40;3.03;;;1.35;;
14306;SDS011;7237;49.500;11.400;2023-07-13T07:27:09;3.08;;;1.30;;
14306;SDS011;7237;49.500;11.400;2023-07-13T07:29:36;3.15;;;1.50;;
14306;SDS011;7237;49.500;11.400;2023-07-13T07:32:03;5.20;;;1.55;;
14306;SDS011;7237;49.500;11.400;2023-07-13T07:34:30;4.35;;;1.48;;
14306;SDS011;7237;49.500;11.400;2023-07-13T07:36:58;2.45;;;1.10;;
14306;SDS011;7237;49.500;11.400;2023-07-13T07:39:25;2.10;;;1.33;;
14306;SDS011;7237;49.500;11.400;2023-07-13T07:41:52;6.72;;;1.92;;
14306;SDS011;7237;49.500;11.400;2023-07-13T07:44:21;2.08;;;1.10;;
14306;SDS011;7237;49.500;11.400;2023-07-13T07:46:48;4.00;;;1.48;;
14306;SDS011;7237;49.500;11.400;2023-07-13T07:49:15;2.28;;;1.30;;
14306;SDS011;7237;49.500;11.400;2023-07-13T07:51:42;5.13;;;1.40;;
14306;SDS011;7237;49.500;11.400;2023-07-13T07:54:09;3.53;;;1.20;;
14306;SDS011;7237;49.500;11.400;2023-07-13T07:56:36;1.60;;;1.20;;
14306;SDS011;7237;49.500;11.400;2023-07-13T07:59:04;4.10;;;1.30;;
14306;SDS011;7237;49.500;11.400;2023-07-13T08:01:32;2.20;;;1.20;;
14306;SDS011;7237;49.500;11.400;2023-07-13T08:03:59;2.10;;;1.40;;
14306;SDS011;7237;49.500;11.400;2023-07-13T08:06:26;3.03;;;1.65;;
14306;SDS011;7237;49.500;11.400;2023-07-13T08:08:54;2.03;;;1.13;;
14306;SDS011;7237;49.500;11.400;2023-07-13T08:11:21;4.25;;;1.13;;
14306;SDS011;7237;49.500;11.400;2023-07-13T08:13:49;1.70;;;0.98;;
14306;SDS011;7237;49.500;11.400;2023-07-13T08:16:16;2.65;;;1.30;;
14306;SDS011;7237;49.500;11.400;2023-07-13T08:18:44;5.70;;;1.73;;
14306;SDS011;7237;49.500;11.400;2023-07-13T08:21:11;4.22;;;1.20;;
14306;SDS011;7237;49.500;11.400;2023-07-13T08:23:38;5.20;;;1.63;;
14306;SDS011;7237;49.500;11.400;2023-07-13T08:26:05;4.55;;;1.67;;
14306;SDS011;7237;49.500;11.400;2023-07-13T08:28:33;1.77;;;1.13;;
14306;SDS011;7237;49.500;11.400;2023-07-13T08:31:00;2.65;;;1.15;;
14306;SDS011;7237;49.500;11.400;2023-07-13T08:33:27;1.60;;;1.20;;
14306;SDS011;7237;49.500;11.400;2023-07-13T08:35:56;2.72;;;1.10;;
14306;SDS011;7237;49.500;11.400;2023-07-13T08:38:23;2.58;;;1.10;;
14306;SDS011;7237;49.500;11.400;2023-07-13T08:40:51;3.47;;;1.15;;
14306;SDS011;7237;49.500;11.400;2023-07-13T08:43:19;2.85;;;1.23;;
14306;SDS011;7237;49.500;11.400;2023-07-13T08:45:48;2.13;;;1.15;;
14306;SDS011;7237;49.500;11.400;2023-07-13T08:48:17;2.88;;;1.35;;
14306;SDS011;7237;49.500;11.400;2023-07-13T08:50:47;2.10;;;1.20;;
14306;SDS011;7237;49.500;11.400;2023-07-13T08:53:16;2.38;;;1.30;;
14306;SDS011;7237;49.500;11.400;2023-07-13T08:55:43;3.38;;;1.10;;
14306;SDS011;7237;49.500;11.400;2023-07-13T08:58:12;3.70;;;1.00;;
14306;SDS011;7237;49.500;11.400;2023-07-13T09:00:42;1.33;;;0.98;;
14306;SDS011;7237;49.500;11.400;2023-07-13T09:03:12;2.00;;;0.95;;
14306;SDS011;7237;49.500;11.400;2023-07-13T09:05:45;0.93;;;0.88;;
14306;SDS011;7237;49.500;11.400;2023-07-13T09:08:22;2.83;;;1.30;;
14306;SDS011;7237;49.500;11.400;2023-07-13T09:10:57;1.02;;;0.80;;
14306;SDS011;7237;49.500;11.400;2023-07-13T09:13:28;0.93;;;0.90;;
14306;SDS011;7237;49.500;11.400;2023-07-13T09:15:57;3.58;;;0.80;;
14306;SDS011;7237;49.500;11.400;2023-07-13T09:18:28;3.78;;;0.95;;
14306;SDS011;7237;49.500;11.400;2023-07-13T09:20:57;3.20;;;1.40;;
14306;SDS011;7237;49.500;11.400;2023-07-13T09:23:28;2.33;;;1.00;;
14306;SDS011;7237;49.500;11.400;2023-07-13T09:26:02;1.63;;;1.10;;
14306;SDS011;7237;49.500;11.400;2023-07-13T09:28:33;2.00;;;1.00;;
14306;SDS011;7237;49.500;11.400;2023-07-13T09:31:03;2.35;;;1.00;;
14306;SDS011;7237;49.500;11.400;2023-07-13T09:33:31;0.70;;;0.70;;
14306;SDS011;7237;49.500;11.400;2023-07-13T09:36:00;2.95;;;1.13;;
14306;SDS011;7237;49.500;11.400;2023-07-13T09:38:29;2.35;;;1.10;;
14306;SDS011;7237;49.500;11.400;2023-07-13T09:40:58;8.70;;;1.13;;
14306;SDS011;7237;49.500;11.400;2023-07-13T09:43:26;2.45;;;0.90;;
14306;SDS011;7237;49.500;11.400;2023-07-13T09:45:54;2.75;;;1.15;;
14306;SDS011;7237;49.500;11.400;2023-07-13T09:48:21;2.38;;;1.00;;
14306;SDS011;7237;49.500;11.400;2023-07-13T09:50:49;1.48;;;0.77;;
14306;SDS011;7237;49.500;11.400;2023-07-13T09:53:20;1.13;;;0.98;;
14306;SDS011;7237;49.500;11.400;2023-07-13T09:55:49;1.48;;;0.85;;
14306;SDS011;7237;49.500;11.400;2023-07-13T09:58:17;2.13;;;0.90;;
14306;SDS011;7237;49.500;11.400;2023-07-13T10:00:53;1.30;;;0.85;;
14306;SDS011;7237;49.500;11.400;2023-07-13T10:03:21;4.28;;;1.10;;
14306;SDS011;7237;49.500;11.400;2023-07-13T10:05:50;1.02;;;0.77;;
14306;SDS011;7237;49.500;11.400;2023-07-13T10:08:19;1.23;;;0.90;;
14306;SDS011;7237;49.500;11.400;2023-07-13T10:10:50;3.28;;;1.00;;
14306;SDS011;7237;49.500;11.400;2023-07-13T10:13:34;1.45;;;1.17;;
14306;SDS011;7237;49.500;11.400;2023-07-13T10:16:03;4.57;;;1.00;;
14306;SDS011;7237;49.500;11.400;2023-07-13T10:18:31;1.95;;;1.15;;
14306;SDS011;7237;49.500;11.400;2023-07-13T10:21:08;1.45;;;0.90;;
14306;SDS011;7237;49.500;11.400;2023-07-13T10:23:36;2.83;;;1.02;;
14306;SDS011;7237;49.500;11.400;2023-07-13T10:26:05;2.78;;;1.00;;
14306;SDS011;7237;49.500;11.400;2023-07-13T10:28:36;2.83;;;0.90;;
14306;SDS011;7237;49.500;11.400;2023-07-13T10:31:06;3.72;;;1.17;;
14306;SDS011;7237;49.500;11.400;2023-07-13T10:33:37;1.92;;;1.15;;
14306;SDS011;7237;49.500;11.400;2023-07-13T10:36:09;2.25;;;1.00;;
14306;SDS011;7237;49.500;11.400;2023-07-13T10:38:38;1.17;;;1.02;;
14306;SDS011;7237;49.500;11.400;2023-07-13T10:41:09;2.13;;;1.00;;
14306;SDS011;7237;49.500;11.400;2023-07-13T10:43:39;2.60;;;1.20;;
14306;SDS011;7237;49.500;11.400;2023-07-13T10:46:09;1.30;;;1.00;;
14306;SDS011;7237;49.500;11.400;2023-07-13T10:48:37;2.38;;;1.20;;
14306;SDS011;7237;49.500;11.400;2023-07-13T10:51:06;2.28;;;1.20;;
14306;SDS011;7237;49.500;11.400;2023-07-13T10:53:34;1.30;;;0.98;;
14306;SDS011;7237;49.500;11.400;2023-07-13T10:56:02;1.98;;;1.00;;
14306;SDS011;7237;49.500;11.400;2023-07-13T10:58:35;2.95;;;1.25;;
14306;SDS011;7237;49.500;11.400;2023-07-13T11:01:04;1.65;;;0.95;;
14306;SDS011;7237;49.500;11.400;2023-07-13T11:03:34;2.03;;;1.05;;
14306;SDS011;7237;49.500;11.400;2023-07-13T11:06:06;2.72;;;1.40;;
14306;SDS011;7237;49.500;11.400;2023-07-13T11:08:35;2.63;;;1.02;;
14306;SDS011;7237;49.500;11.400;2023-07-13T11:11:03;3.03;;;1.23;;
14306;SDS011;7237;49.500;11.400;2023-07-13T11:13:39;1.75;;;1.25;;
14306;SDS011;7237;49.500;11.400;2023-07-13T11:16:35;4.10;;;1.25;;
14306;SDS011;7237;49.500;11.400;2023-07-13T11:22:01;0.95;;;0.70;;
14306;SDS011;7237;49.500;11.400;2023-07-13T11:24:28;1.65;;;1.50;;
14306;SDS011;7237;49.500;11.400;2023-07-13T11:26:56;2.10;;;1.00;;
14306;SDS011;7237;49.500;11.400;2023-07-13T11:29:31;2.63;;;1.25;;
14306;SDS011;7237;49.500;11.400;2023-07-13T11:32:00;1.73;;;1.13;;
14306;SDS011;7237;49.500;11.400;2023-07-13T11:34:29;0.93;;;0.85;;
14306;SDS011;7237;49.500;11.400;2023-07-13T11:36:57;3.75;;;1.63;;
14306;SDS011;7237;49.500;11.400;2023-07-13T11:39:26;2.05;;;1.13;;
14306;SDS011;7237;49.500;11.400;2023-07-13T11:41:56;1.17;;;1.00;;
14306;SDS011;7237;49.500;11.400;2023-07-13T11:44:25;2.40;;;1.05;;
14306;SDS011;7237;49.500;11.400;2023-07-13T11:46:53;1.48;;;1.10;;
14306;SDS011;7237;49.500;11.400;2023-07-13T11:49:22;3.00;;;1.08;;
14306;SDS011;7237;49.500;11.400;2023-07-13T11:51:52;2.30;;;1.35;;
14306;SDS011;7237;49.500;11.400;2023-07-13T11:54:24;3.55;;;1.20;;
14306;SDS011;7237;49.500;11.400;2023-07-13T11:56:52;5.20;;;1.25;;
14306;SDS011;7237;49.500;11.400;2023-07-13T11:59:20;2.80;;;1.30;;
14306;SDS011;7237;49.500;11.400;2023-07-13T12:01:52;3.08;;;1.38;;
14306;SDS011;7237;49.500;11.400;2023-07-13T12:04:21;5.10;;;1.10;;
14306;SDS011;7237;49.500;11.400;2023-07-13T12:06:54;3.53;;;1.40;;
14306;SDS011;7237;49.500;11.400;2023-07-13T12:09:21;0.85;;;0.80;;
14306;SDS011;7237;49.500;11.400;2023-07-13T12:11:50;2.95;;;1.25;;
14306;SDS011;7237;49.500;11.400;2023-07-13T12:14:18;2.17;;;1.13;;
14306;SDS011;7237;49.500;11.400;2023-07-13T12:16:46;1.20;;;0.90;;
14306;SDS011;7237;49.500;11.400;2023-07-13T12:19:16;4.97;;;1.30;;
14306;SDS011;7237;49.500;11.400;2023-07-13T12:21:44;3.45;;;1.33;;
14306;SDS011;7237;49.500;11.400;2023-07-13T12:24:13;2.05;;;1.08;;
14306;SDS011;7237;49.500;11.400;2023-07-13T12:26:41;2.28;;;1.10;;
14306;SDS011;7237;49.500;11.400;2023-07-13T12:29:11;1.85;;;1.42;;
14306;SDS011;7237;49.500;11.400;2023-07-13T12:31:41;1.65;;;1.02;;
14306;SDS011;7237;49.500;11.400;2023-07-13T12:34:10;2.25;;;1.20;;
14306;SDS011;7237;49.500;11.400;2023-07-13T12:36:40;1.65;;;1.23;;
14306;SDS011;7237;49.500;11.400;2023-07-13T12:39:12;2.45;;;1.08;;
14306;SDS011;7237;49.500;11.400;2023-07-13T12:41:40;4.88;;;1.38;;
14306;SDS011;7237;49.500;11.400;2023-07-13T12:44:10;3.05;;;1.20;;
14306;SDS011;7237;49.500;11.400;2023-07-13T12:46:38;1.42;;;1.05;;
14306;SDS011;7237;49.500;11.400;2023-07-13T12:49:05;2.38;;;1.08;;
14306;SDS011;7237;49.500;11.400;2023-07-13T12:51:33;1.60;;;1.25;;
14306;SDS011;7237;49.500;11.400;2023-07-13T12:54:07;1.58;;;1.13;;
14306;SDS011;7237;49.500;11.400;2023-07-13T12:56:37;3.20;;;1.15;;
14306;SDS011;7237;49.500;11.400;2023-07-13T12:59:04;1.92;;;1.00;;
14306;SDS011;7237;49.500;11.400;2023-07-13T13:01:34;2.90;;;0.93;;
14306;SDS011;7237;49.500;11.400;2023-07-13T13:04:03;2.78;;;1.30;;
14306;SDS011;7237;49.500;11.400;2023-07-13T13:06:31;1.30;;;1.20;;
14306;SDS011;7237;49.500;11.400;2023-07-13T13:09:01;3.75;;;1.05;;
14306;SDS011;7237;49.500;11.400;2023-07-13T13:11:31;2.55;;;1.15;;
14306;SDS011;7237;49.500;11.400;2023-07-13T13:13:59;3.40;;;1.45;;
14306;SDS011;7237;49.500;11.400;2023-07-13T13:16:29;6.60;;;1.40;;
14306;SDS011;7237;49.500;11.400;2023-07-13T13:18:59;3.13;;;1.40;;
14306;SDS011;7237;49.500;11.400;2023-07-13T13:21:27;3.83;;;1.65;;
14306;SDS011;7237;49.500;11.400;2023-07-13T13:23:54;1.85;;;1.20;;
14306;SDS011;7237;49.500;11.400;2023-07-13T13:26:21;2.38;;;1.27;;
14306;SDS011;7237;49.500;11.400;2023-07-13T13:28:50;2.63;;;1.25;;
14306;SDS011;7237;49.500;11.400;2023-07-13T13:31:17;2.35;;;1.13;;
14306;SDS011;7237;49.500;11.400;2023-07-13T13:33:45;4.47;;;1.35;;
14306;SDS011;7237;49.500;11.400;2023-07-13T13:36:16;2.80;;;1.20;;
14306;SDS011;7237;49.500;11.400;2023-07-13T13:38:44;2.17;;;1.23;;
14306;SDS011;7237;49.500;11.400;2023-07-13T13:41:11;2.30;;;1.50;;
14306;SDS011;7237;49.500;11.400;2023-07-13T13:43:39;2.28;;;1.10;;
14306;SDS011;7237;49.500;11.400;2023-07-13T13:46:11;4.47;;;1.10;;
14306;SDS011;7237;49.500;11.400;2023-07-13T13:48:39;3.95;;;1.25;;
14306;SDS011;7237;49.500;11.400;2023-07-13T13:51:11;1.73;;;1.30;;
14306;SDS011;7237;49.500;11.400;2023-07-13T13:53:39;1.98;;;1.20;;
14306;SDS011;7237;49.500;11.400;2023-07-13T13:56:06;3.13;;;1.48;;
14306;SDS011;7237;49.500;11.400;2023-07-13T13:58:34;2.78;;;1.48;;
14306;SDS011;7237;49.500;11.400;2023-07-13T14:01:01;2.53;;;1.05;;
14306;SDS011;7237;49.500;11.400;2023-07-13T14:03:29;2.33;;;1.00;;
14306;SDS011;7237;49.500;11.400;2023-07-13T14:05:56;2.55;;;1.38;;
14306;SDS011;7237;49.500;11.400;2023-07-13T14:08:23;4.15;;;1.38;;
14306;SDS011;7237;49.500;11.400;2023-07-13T14:10:52;1.92;;;1.45;;
14306;SDS011;7237;49.500;11.400;2023-07-13T14:13:21;1.90;;;1.20;;
14306;SDS011;7237;49.500;11.400;2023-07-13T14:15:51;2.83;;;1.40;;
14306;SDS011;7237;49.500;11.400;2023-07-13T14:18:18;2.88;;;1.27;;
14306;SDS011;7237;49.500;11.400;2023-07-13T14:20:47;3.75;;;1.30;;
14306;SDS011;7237;49.500;11.400;2023-07-13T14:23:15;2.80;;;1.42;;
14306;SDS011;7237;49.500;11.400;2023-07-13T14:25:43;2.65;;;1.60;;
14306;SDS011;7237;49.500;11.400;2023-07-13T14:28:16;2.63;;;1.23;;
14306;SDS011;7237;49.500;11.400;2023-07-13T14:30:44;2.17;;;1.55;;
14306;SDS011;7237;49.500;11.400;2023-07-13T14:33:12;2.13;;;1.60;;
14306;SDS011;7237;49.500;11.400;2023-07-13T14:35:39;4.35;;;1.27;;
14306;SDS011;7237;49.500;11.400;2023-07-13T14:38:09;5.05;;;1.50;;
14306;SDS011;7237;49.500;11.400;2023-07-13T14:40:37;1.45;;;1.10;;
14306;SDS011;7237;49.500;11.400;2023-07-13T14:43:04;1.95;;;1.33;;
14306;SDS011;7237;49.500;11.400;2023-07-13T14:45:33;1.92;;;1.23;;
14306;SDS011;7237;49.500;11.400;2023-07-13T14:48:01;3.35;;;1.30;;
14306;SDS011;7237;49.500;11.400;2023-07-13T14:50:30;4.22;;;1.33;;
14306;SDS011;7237;49.500;11.400;2023-07-13T14:52:57;1.75;;;1.13;;
14306;SDS011;7237;49.500;11.400;2023-07-13T14:55:26;3.28;;;1.05;;
14306;SDS011;7237;49.500;11.400;2023-07-13T14:57:53;2.67;;;1.38;;
14306;SDS011;7237;49.500;11.400;2023-07-13T15:00:22;2.13;;;1.20;;
14306;SDS011;7237;49.500;11.400;2023-07-13T15:02:51;1.85;;;1.30;;